sensor_id;sensor_type;location;lat;lon;timestamp;temperature;humidity
13389;DHT22;6764;53.250;10.410;2023-05-19T00:00:14;11.90;90.90
13389;DHT22;6764;53.250;10.410;2023-05-19T00:02:40;11.90;91.10
13389;DHT22;6764;53.250;10.410;2023-05-19T00:05:09;12.00;91.10
13389;DHT22;6764;53.250;10.410;2023-05-19T00:07:37;12.00;91.30
13389;DHT22;6764;53.250;10.410;2023-05-19T00:10:04;12.00;91.30
13389;DHT22;6764;53.250;10.410;2023-05-19T00:12:31;11.90;91.40
13389;DHT22;6764;53.250;10.410;2023-05-19T00:14:56;11.80;91.50
13389;DHT22;6764;53.250;10.410;2023-05-19T00:17:22;11.70;92.00
13389;DHT22;6764;53.250;10.410;2023-05-19T00:19:48;11.60;92.30
13389;DHT22;6764;53.250;10.410;2023-05-19T00:22:14;11.60;92.30
13389;DHT22;6764;53.250;10.410;2023-05-19T00:24:40;11.50;92.70
13389;DHT22;6764;53.250;10.410;2023-05-19T00:27:06;11.50;92.80
13389;DHT22;6764;53.250;10.410;2023-05-19T00:29:31;11.60;93.00
13389;DHT22;6764;53.250;10.410;2023-05-19T00:31:57;11.50;93.10
13389;DHT22;6764;53.250;10.410;2023-05-19T00:34:22;11.50;93.40
13389;DHT22;6764;53.250;10.410;2023-05-19T00:36:48;11.50;93.60
13389;DHT22;6764;53.250;10.410;2023-05-19T00:39:14;11.50;93.80
13389;DHT22;6764;53.250;10.410;2023-05-19T00:41:40;11.60;93.90
13389;DHT22;6764;53.250;10.410;2023-05-19T00:44:06;11.60;94.10
13389;DHT22;6764;53.250;10.410;2023-05-19T00:46:32;11.60;94.30
13389;DHT22;6764;53.250;10.410;2023-05-19T00:49:00;11.50;94.70
13389;DHT22;6764;53.250;10.410;2023-05-19T00:51:27;11.40;95.20
13389;DHT22;6764;53.250;10.410;2023-05-19T00:53:53;11.40;95.40
13389;DHT22;6764;53.250;10.410;2023-05-19T00:56:19;11.40;95.50
13389;DHT22;6764;53.250;10.410;2023-05-19T00:58:46;11.40;95.70
13389;DHT22;6764;53.250;10.410;2023-05-19T01:01:12;11.40;96.00
13389;DHT22;6764;53.250;10.410;2023-05-19T01:03:42;11.40;96.10
13389;DHT22;6764;53.250;10.410;2023-05-19T01:06:08;11.40;96.30
13389;DHT22;6764;53.250;10.410;2023-05-19T01:08:35;11.40;96.50
13389;DHT22;6764;53.250;10.410;2023-05-19T01:11:02;11.40;96.70
13389;DHT22;6764;53.250;10.410;2023-05-19T01:13:28;11.50;96.90
13389;DHT22;6764;53.250;10.410;2023-05-19T01:30:33;11.40;98.10
13389;DHT22;6764;53.250;10.410;2023-05-19T01:33:05;11.20;98.60
13389;DHT22;6764;53.250;10.410;2023-05-19T01:35:34;11.20;99.00
13389;DHT22;6764;53.250;10.410;2023-05-19T01:38:03;11.20;99.20
13389;DHT22;6764;53.250;10.410;2023-05-19T01:40:29;11.20;99.30
13389;DHT22;6764;53.250;10.410;2023-05-19T01:42:59;11.30;99.50
13389;DHT22;6764;53.250;10.410;2023-05-19T01:45:30;11.30;99.60
13389;DHT22;6764;53.250;10.410;2023-05-19T01:47:58;11.20;99.90
13389;DHT22;6764;53.250;10.410;2023-05-19T01:50:24;11.20;99.90
13389;DHT22;6764;53.250;10.410;2023-05-19T01:52:51;11.10;99.90
13389;DHT22;6764;53.250;10.410;2023-05-19T01:55:17;11.10;99.90
13389;DHT22;6764;53.250;10.410;2023-05-19T01:57:54;11.10;99.90
13389;DHT22;6764;53.250;10.410;2023-05-19T02:00:43;11.00;99.90
13389;DHT22;6764;53.250;10.410;2023-05-19T02:11:37;11.00;99.90
13389;DHT22;6764;53.250;10.410;2023-05-19T02:14:27;11.00;99.90
13389;DHT22;6764;53.250;10.410;2023-05-19T02:16:56;11.00;99.90
13389;DHT22;6764;53.250;10.410;2023-05-19T02:19:28;11.00;99.90
13389;DHT22;6764;53.250;10.410;2023-05-19T02:21:55;11.10;99.90
13389;DHT22;6764;53.250;10.410;2023-05-19T02:24:21;11.00;99.90
13389;DHT22;6764;53.250;10.410;2023-05-19T02:26:51;11.00;99.90
13389;DHT22;6764;53.250;10.410;2023-05-19T02:29:17;11.00;99.90
13389;DHT22;6764;53.250;10.410;2023-05-19T02:31:43;10.90;99.90
13389;DHT22;6764;53.250;10.410;2023-05-19T02:34:08;10.90;99.90
13389;DHT22;6764;53.250;10.410;2023-05-19T02:36:34;10.90;99.90
13389;DHT22;6764;53.250;10.410;2023-05-19T02:39:03;10.80;99.90
13389;DHT22;6764;53.250;10.410;2023-05-19T02:41:29;10.80;99.90
13389;DHT22;6764;53.250;10.410;2023-05-19T02:43:55;10.70;99.90
13389;DHT22;6764;53.250;10.410;2023-05-19T02:46:22;10.70;99.90
13389;DHT22;6764;53.250;10.410;2023-05-19T02:48:48;10.70;99.90
13389;DHT22;6764;53.250;10.410;2023-05-19T02:51:13;10.60;99.90
13389;DHT22;6764;53.250;10.410;2023-05-19T02:53:39;10.60;99.90
13389;DHT22;6764;53.250;10.410;2023-05-19T02:56:04;10.60;99.90
13389;DHT22;6764;53.250;10.410;2023-05-19T02:58:30;10.70;99.90
13389;DHT22;6764;53.250;10.410;2023-05-19T03:00:56;10.70;99.90
13389;DHT22;6764;53.250;10.410;2023-05-19T03:03:21;10.70;99.90
13389;DHT22;6764;53.250;10.410;2023-05-19T03:05:47;10.70;99.90
13389;DHT22;6764;53.250;10.410;2023-05-19T03:08:13;10.60;99.90
13389;DHT22;6764;53.250;10.410;2023-05-19T03:10:38;10.50;99.90
13389;DHT22;6764;53.250;10.410;2023-05-19T03:13:04;10.50;99.90
13389;DHT22;6764;53.250;10.410;2023-05-19T03:15:30;10.40;99.90
13389;DHT22;6764;53.250;10.410;2023-05-19T03:17:56;10.30;99.90
13389;DHT22;6764;53.250;10.410;2023-05-19T03:20:22;10.30;99.90
13389;DHT22;6764;53.250;10.410;2023-05-19T03:22:49;10.30;99.90
13389;DHT22;6764;53.250;10.410;2023-05-19T03:25:15;10.40;99.90
13389;DHT22;6764;53.250;10.410;2023-05-19T03:27:41;10.40;99.90
13389;DHT22;6764;53.250;10.410;2023-05-19T03:30:07;10.30;99.90
13389;DHT22;6764;53.250;10.410;2023-05-19T03:32:33;10.30;99.90
13389;DHT22;6764;53.250;10.410;2023-05-19T03:35:02;10.30;99.90
13389;DHT22;6764;53.250;10.410;2023-05-19T03:37:31;10.30;99.90
13389;DHT22;6764;53.250;10.410;2023-05-19T03:39:58;10.20;99.90
13389;DHT22;6764;53.250;10.410;2023-05-19T03:42:24;10.30;99.90
13389;DHT22;6764;53.250;10.410;2023-05-19T03:44:50;10.30;99.90
13389;DHT22;6764;53.250;10.410;2023-05-19T03:47:16;10.30;99.90
13389;DHT22;6764;53.250;10.410;2023-05-19T03:49:41;10.30;99.90
13389;DHT22;6764;53.250;10.410;2023-05-19T03:52:07;10.40;99.90
13389;DHT22;6764;53.250;10.410;2023-05-19T03:54:34;10.40;99.90
13389;DHT22;6764;53.250;10.410;2023-05-19T03:57:00;10.50;99.90
13389;DHT22;6764;53.250;10.410;2023-05-19T03:59:26;10.50;99.90
13389;DHT22;6764;53.250;10.410;2023-05-19T04:01:52;10.60;99.90
13389;DHT22;6764;53.250;10.410;2023-05-19T04:04:17;10.60;99.90
13389;DHT22;6764;53.250;10.410;2023-05-19T04:06:43;10.70;99.90
13389;DHT22;6764;53.250;10.410;2023-05-19T04:09:11;10.70;99.90
13389;DHT22;6764;53.250;10.410;2023-05-19T04:11:38;10.60;99.90
13389;DHT22;6764;53.250;10.410;2023-05-19T04:14:04;10.70;99.90
13389;DHT22;6764;53.250;10.410;2023-05-19T04:16:30;10.70;99.90
13389;DHT22;6764;53.250;10.410;2023-05-19T04:18:56;10.70;99.90
13389;DHT22;6764;53.250;10.410;2023-05-19T04:21:21;10.80;99.90
13389;DHT22;6764;53.250;10.410;2023-05-19T04:23:47;10.80;99.90
13389;DHT22;6764;53.250;10.410;2023-05-19T04:26:13;10.80;99.90
13389;DHT22;6764;53.250;10.410;2023-05-19T04:28:39;10.90;99.90
13389;DHT22;6764;53.250;10.410;2023-05-19T04:31:07;10.90;99.90
13389;DHT22;6764;53.250;10.410;2023-05-19T04:33:37;10.90;99.90
13389;DHT22;6764;53.250;10.410;2023-05-19T04:36:04;11.00;99.90
13389;DHT22;6764;53.250;10.410;2023-05-19T04:38:29;11.10;99.90
13389;DHT22;6764;53.250;10.410;2023-05-19T04:40:55;11.00;99.90
13389;DHT22;6764;53.250;10.410;2023-05-19T04:43:21;11.20;99.90
13389;DHT22;6764;53.250;10.410;2023-05-19T04:45:47;11.30;99.90
13389;DHT22;6764;53.250;10.410;2023-05-19T04:48:14;11.30;99.90
13389;DHT22;6764;53.250;10.410;2023-05-19T04:50:40;11.40;99.90
13389;DHT22;6764;53.250;10.410;2023-05-19T04:53:08;11.40;99.90
13389;DHT22;6764;53.250;10.410;2023-05-19T04:55:33;11.40;99.90
13389;DHT22;6764;53.250;10.410;2023-05-19T04:57:59;11.50;99.90
13389;DHT22;6764;53.250;10.410;2023-05-19T05:00:25;11.60;99.90
13389;DHT22;6764;53.250;10.410;2023-05-19T05:02:51;11.70;99.90
13389;DHT22;6764;53.250;10.410;2023-05-19T05:05:16;11.60;99.90
13389;DHT22;6764;53.250;10.410;2023-05-19T05:07:42;11.60;99.90
13389;DHT22;6764;53.250;10.410;2023-05-19T05:10:08;11.60;99.90
13389;DHT22;6764;53.250;10.410;2023-05-19T05:12:34;11.70;99.90
13389;DHT22;6764;53.250;10.410;2023-05-19T05:15:00;11.70;99.90
13389;DHT22;6764;53.250;10.410;2023-05-19T05:17:26;11.70;99.90
13389;DHT22;6764;53.250;10.410;2023-05-19T05:19:52;11.70;99.90
13389;DHT22;6764;53.250;10.410;2023-05-19T05:22:18;11.80;99.90
13389;DHT22;6764;53.250;10.410;2023-05-19T05:24:44;11.80;99.90
13389;DHT22;6764;53.250;10.410;2023-05-19T05:27:10;11.70;99.90
13389;DHT22;6764;53.250;10.410;2023-05-19T05:29:36;11.80;99.90
13389;DHT22;6764;53.250;10.410;2023-05-19T05:32:01;11.90;99.90
13389;DHT22;6764;53.250;10.410;2023-05-19T05:34:27;11.90;99.90
13389;DHT22;6764;53.250;10.410;2023-05-19T05:36:53;11.90;99.90
13389;DHT22;6764;53.250;10.410;2023-05-19T05:39:19;12.00;99.90
13389;DHT22;6764;53.250;10.410;2023-05-19T05:41:44;11.90;99.90
13389;DHT22;6764;53.250;10.410;2023-05-19T05:44:10;12.00;99.90
13389;DHT22;6764;53.250;10.410;2023-05-19T05:46:35;12.10;99.90
13389;DHT22;6764;53.250;10.410;2023-05-19T05:49:01;12.20;99.90
13389;DHT22;6764;53.250;10.410;2023-05-19T05:51:27;12.50;99.90
13389;DHT22;6764;53.250;10.410;2023-05-19T05:53:53;12.50;99.90
13389;DHT22;6764;53.250;10.410;2023-05-19T05:56:20;12.60;99.90
13389;DHT22;6764;53.250;10.410;2023-05-19T05:58:46;12.70;99.90
13389;DHT22;6764;53.250;10.410;2023-05-19T06:01:12;12.70;99.90
13389;DHT22;6764;53.250;10.410;2023-05-19T06:03:39;12.80;99.90
13389;DHT22;6764;53.250;10.410;2023-05-19T06:06:05;13.00;99.90
13389;DHT22;6764;53.250;10.410;2023-05-19T06:08:31;13.20;99.90
13389;DHT22;6764;53.250;10.410;2023-05-19T06:10:57;13.30;99.90
13389;DHT22;6764;53.250;10.410;2023-05-19T06:13:23;13.50;99.90
13389;DHT22;6764;53.250;10.410;2023-05-19T06:15:51;13.70;99.90
13389;DHT22;6764;53.250;10.410;2023-05-19T06:18:17;13.80;99.90
13389;DHT22;6764;53.250;10.410;2023-05-19T06:20:42;14.00;99.90
13389;DHT22;6764;53.250;10.410;2023-05-19T06:23:08;14.20;99.90
13389;DHT22;6764;53.250;10.410;2023-05-19T06:25:34;14.80;99.90
13389;DHT22;6764;53.250;10.410;2023-05-19T06:28:00;16.20;99.90
13389;DHT22;6764;53.250;10.410;2023-05-19T06:30:25;17.90;97.60
13389;DHT22;6764;53.250;10.410;2023-05-19T06:32:51;19.60;94.00
13389;DHT22;6764;53.250;10.410;2023-05-19T06:35:16;21.20;89.10
13389;DHT22;6764;53.250;10.410;2023-05-19T06:37:42;22.70;85.20
13389;DHT22;6764;53.250;10.410;2023-05-19T06:40:08;24.20;78.80
13389;DHT22;6764;53.250;10.410;2023-05-19T06:42:34;25.00;73.40
13389;DHT22;6764;53.250;10.410;2023-05-19T06:45:00;26.00;69.20
13389;DHT22;6764;53.250;10.410;2023-05-19T06:47:25;26.70;65.30
13389;DHT22;6764;53.250;10.410;2023-05-19T06:49:51;27.70;64.30
13389;DHT22;6764;53.250;10.410;2023-05-19T06:52:21;28.50;60.80
13389;DHT22;6764;53.250;10.410;2023-05-19T06:54:47;29.50;57.80
13389;DHT22;6764;53.250;10.410;2023-05-19T06:57:13;30.30;54.30
13389;DHT22;6764;53.250;10.410;2023-05-19T06:59:38;29.90;52.60
13389;DHT22;6764;53.250;10.410;2023-05-19T07:02:08;29.80;51.70
13389;DHT22;6764;53.250;10.410;2023-05-19T07:04:34;30.10;51.30
13389;DHT22;6764;53.250;10.410;2023-05-19T07:07:00;31.10;49.40
13389;DHT22;6764;53.250;10.410;2023-05-19T07:09:26;31.20;47.70
13389;DHT22;6764;53.250;10.410;2023-05-19T07:11:52;30.30;48.80
13389;DHT22;6764;53.250;10.410;2023-05-19T07:14:17;30.50;48.70
13389;DHT22;6764;53.250;10.410;2023-05-19T07:16:43;29.00;47.30
13389;DHT22;6764;53.250;10.410;2023-05-19T07:19:08;28.00;49.60
13389;DHT22;6764;53.250;10.410;2023-05-19T07:21:34;27.50;49.70
13389;DHT22;6764;53.250;10.410;2023-05-19T07:24:00;27.60;50.40
13389;DHT22;6764;53.250;10.410;2023-05-19T07:26:25;28.00;50.40
13389;DHT22;6764;53.250;10.410;2023-05-19T07:28:51;28.70;49.70
13389;DHT22;6764;53.250;10.410;2023-05-19T07:31:18;29.10;48.70
13389;DHT22;6764;53.250;10.410;2023-05-19T07:33:44;29.00;48.60
13389;DHT22;6764;53.250;10.410;2023-05-19T07:36:09;29.10;49.20
13389;DHT22;6764;53.250;10.410;2023-05-19T07:38:35;29.60;48.50
13389;DHT22;6764;53.250;10.410;2023-05-19T07:41:01;30.70;47.50
13389;DHT22;6764;53.250;10.410;2023-05-19T07:43:27;31.50;46.70
13389;DHT22;6764;53.250;10.410;2023-05-19T07:45:53;31.50;45.50
13389;DHT22;6764;53.250;10.410;2023-05-19T07:48:22;31.20;45.10
13389;DHT22;6764;53.250;10.410;2023-05-19T07:50:50;31.50;45.50
13389;DHT22;6764;53.250;10.410;2023-05-19T07:53:16;31.50;44.40
13389;DHT22;6764;53.250;10.410;2023-05-19T07:55:42;31.40;44.50
13389;DHT22;6764;53.250;10.410;2023-05-19T07:58:07;30.50;46.20
13389;DHT22;6764;53.250;10.410;2023-05-19T08:00:33;31.20;45.60
13389;DHT22;6764;53.250;10.410;2023-05-19T08:02:59;32.00;45.40
13389;DHT22;6764;53.250;10.410;2023-05-19T08:05:24;32.30;44.50
13389;DHT22;6764;53.250;10.410;2023-05-19T08:07:50;32.00;44.10
13389;DHT22;6764;53.250;10.410;2023-05-19T08:10:16;31.80;44.80
13389;DHT22;6764;53.250;10.410;2023-05-19T08:12:42;32.00;44.80
13389;DHT22;6764;53.250;10.410;2023-05-19T08:15:08;32.50;44.20
13389;DHT22;6764;53.250;10.410;2023-05-19T08:17:36;32.70;43.70
13389;DHT22;6764;53.250;10.410;2023-05-19T08:20:02;33.50;43.30
13389;DHT22;6764;53.250;10.410;2023-05-19T08:22:29;32.70;43.20
13389;DHT22;6764;53.250;10.410;2023-05-19T08:24:55;32.00;43.70
13389;DHT22;6764;53.250;10.410;2023-05-19T08:27:21;31.70;44.50
13389;DHT22;6764;53.250;10.410;2023-05-19T08:29:47;31.70;44.20
13389;DHT22;6764;53.250;10.410;2023-05-19T08:32:12;32.20;44.60
13389;DHT22;6764;53.250;10.410;2023-05-19T08:34:38;32.40;44.80
13389;DHT22;6764;53.250;10.410;2023-05-19T08:37:04;33.50;43.60
13389;DHT22;6764;53.250;10.410;2023-05-19T08:39:32;33.20;43.00
13389;DHT22;6764;53.250;10.410;2023-05-19T08:41:59;32.40;44.20
13389;DHT22;6764;53.250;10.410;2023-05-19T08:44:25;32.90;43.80
13389;DHT22;6764;53.250;10.410;2023-05-19T08:46:53;33.70;43.20
13389;DHT22;6764;53.250;10.410;2023-05-19T08:49:25;33.40;42.90
13389;DHT22;6764;53.250;10.410;2023-05-19T08:52:13;33.40;43.20
13389;DHT22;6764;53.250;10.410;2023-05-19T08:55:03;34.30;41.90
13389;DHT22;6764;53.250;10.410;2023-05-19T08:57:30;34.00;42.00
13389;DHT22;6764;53.250;10.410;2023-05-19T08:59:57;33.70;43.00
13389;DHT22;6764;53.250;10.410;2023-05-19T09:02:24;32.80;43.30
13389;DHT22;6764;53.250;10.410;2023-05-19T09:04:50;32.60;43.50
13389;DHT22;6764;53.250;10.410;2023-05-19T09:07:17;32.60;43.70
13389;DHT22;6764;53.250;10.410;2023-05-19T09:09:44;32.10;43.90
13389;DHT22;6764;53.250;10.410;2023-05-19T09:12:11;31.20;45.40
13389;DHT22;6764;53.250;10.410;2023-05-19T09:14:37;30.60;46.30
13389;DHT22;6764;53.250;10.410;2023-05-19T09:17:04;29.90;47.20
13389;DHT22;6764;53.250;10.410;2023-05-19T09:19:29;30.20;47.10
13389;DHT22;6764;53.250;10.410;2023-05-19T09:22:02;30.90;46.60
13389;DHT22;6764;53.250;10.410;2023-05-19T09:24:28;31.10;46.00
13389;DHT22;6764;53.250;10.410;2023-05-19T09:26:57;31.00;45.90
13389;DHT22;6764;53.250;10.410;2023-05-19T09:29:23;31.60;45.90
13389;DHT22;6764;53.250;10.410;2023-05-19T09:31:50;32.20;45.20
13389;DHT22;6764;53.250;10.410;2023-05-19T09:34:16;33.00;43.40
13389;DHT22;6764;53.250;10.410;2023-05-19T09:36:42;33.30;42.80
13389;DHT22;6764;53.250;10.410;2023-05-19T09:39:14;33.70;42.30
13389;DHT22;6764;53.250;10.410;2023-05-19T09:41:41;34.00;41.70
13389;DHT22;6764;53.250;10.410;2023-05-19T09:44:06;34.40;40.90
13389;DHT22;6764;53.250;10.410;2023-05-19T09:46:32;34.00;39.90
13389;DHT22;6764;53.250;10.410;2023-05-19T09:49:07;34.30;40.20
13389;DHT22;6764;53.250;10.410;2023-05-19T09:51:36;34.60;39.60
13389;DHT22;6764;53.250;10.410;2023-05-19T09:54:03;34.60;39.70
13389;DHT22;6764;53.250;10.410;2023-05-19T09:56:33;34.40;40.30
13389;DHT22;6764;53.250;10.410;2023-05-19T09:58:59;33.80;40.90
13389;DHT22;6764;53.250;10.410;2023-05-19T10:01:26;33.80;40.90
13389;DHT22;6764;53.250;10.410;2023-05-19T10:03:52;33.40;41.90
13389;DHT22;6764;53.250;10.410;2023-05-19T10:06:19;33.30;41.90
13389;DHT22;6764;53.250;10.410;2023-05-19T10:08:45;32.70;42.40
13389;DHT22;6764;53.250;10.410;2023-05-19T10:11:12;32.50;41.70
13389;DHT22;6764;53.250;10.410;2023-05-19T10:13:39;32.70;41.70
13389;DHT22;6764;53.250;10.410;2023-05-19T10:16:06;33.00;41.40
13389;DHT22;6764;53.250;10.410;2023-05-19T10:18:32;32.60;41.50
13389;DHT22;6764;53.250;10.410;2023-05-19T10:20:59;32.20;42.00
13389;DHT22;6764;53.250;10.410;2023-05-19T10:23:25;32.20;42.70
13389;DHT22;6764;53.250;10.410;2023-05-19T10:25:55;31.90;42.90
13389;DHT22;6764;53.250;10.410;2023-05-19T10:28:24;31.90;41.90
13389;DHT22;6764;53.250;10.410;2023-05-19T10:30:55;31.50;40.90
13389;DHT22;6764;53.250;10.410;2023-05-19T10:39:16;30.80;41.30
13389;DHT22;6764;53.250;10.410;2023-05-19T10:42:08;30.10;43.90
13389;DHT22;6764;53.250;10.410;2023-05-19T10:44:52;29.40;45.30
13389;DHT22;6764;53.250;10.410;2023-05-19T10:47:25;28.90;45.90
13389;DHT22;6764;53.250;10.410;2023-05-19T10:49:52;28.60;46.00
13389;DHT22;6764;53.250;10.410;2023-05-19T10:52:24;28.60;46.20
13389;DHT22;6764;53.250;10.410;2023-05-19T10:54:50;28.40;46.10
13389;DHT22;6764;53.250;10.410;2023-05-19T10:57:20;27.80;44.20
13389;DHT22;6764;53.250;10.410;2023-05-19T10:59:49;27.10;46.80
13389;DHT22;6764;53.250;10.410;2023-05-19T11:05:07;26.50;48.20
13389;DHT22;6764;53.250;10.410;2023-05-19T11:07:34;26.60;48.10
13389;DHT22;6764;53.250;10.410;2023-05-19T11:10:04;26.00;48.50
13389;DHT22;6764;53.250;10.410;2023-05-19T11:12:39;25.70;49.20
13389;DHT22;6764;53.250;10.410;2023-05-19T11:15:08;25.20;49.70
13389;DHT22;6764;53.250;10.410;2023-05-19T11:17:34;24.80;50.80
13389;DHT22;6764;53.250;10.410;2023-05-19T11:20:00;24.30;51.60
13389;DHT22;6764;53.250;10.410;2023-05-19T11:22:26;23.90;51.90
13389;DHT22;6764;53.250;10.410;2023-05-19T11:24:56;23.70;52.60
13389;DHT22;6764;53.250;10.410;2023-05-19T11:27:31;23.20;52.60
13389;DHT22;6764;53.250;10.410;2023-05-19T11:29:57;22.90;53.00
13389;DHT22;6764;53.250;10.410;2023-05-19T11:32:31;22.90;53.10
13389;DHT22;6764;53.250;10.410;2023-05-19T11:35:03;22.50;54.40
13389;DHT22;6764;53.250;10.410;2023-05-19T11:37:31;22.40;53.90
13389;DHT22;6764;53.250;10.410;2023-05-19T11:39:59;22.50;54.30
13389;DHT22;6764;53.250;10.410;2023-05-19T11:42:25;22.60;54.20
13389;DHT22;6764;53.250;10.410;2023-05-19T11:44:54;22.70;54.60
13389;DHT22;6764;53.250;10.410;2023-05-19T11:47:20;23.20;53.50
13389;DHT22;6764;53.250;10.410;2023-05-19T11:49:50;23.60;53.20
13389;DHT22;6764;53.250;10.410;2023-05-19T11:52:16;23.60;53.30
13389;DHT22;6764;53.250;10.410;2023-05-19T11:54:42;23.50;53.10
13389;DHT22;6764;53.250;10.410;2023-05-19T11:57:10;23.40;53.60
13389;DHT22;6764;53.250;10.410;2023-05-19T11:59:37;23.00;52.40
13389;DHT22;6764;53.250;10.410;2023-05-19T12:02:18;22.90;52.40
13389;DHT22;6764;53.250;10.410;2023-05-19T12:04:45;23.00;54.20
13389;DHT22;6764;53.250;10.410;2023-05-19T12:07:11;23.20;54.90
13389;DHT22;6764;53.250;10.410;2023-05-19T12:09:38;23.40;54.60
13389;DHT22;6764;53.250;10.410;2023-05-19T12:12:04;23.30;53.90
13389;DHT22;6764;53.250;10.410;2023-05-19T12:14:29;22.80;54.90
13389;DHT22;6764;53.250;10.410;2023-05-19T12:16:55;22.40;55.20
13389;DHT22;6764;53.250;10.410;2023-05-19T12:19:25;22.30;55.00
13389;DHT22;6764;53.250;10.410;2023-05-19T12:21:51;22.40;55.00
13389;DHT22;6764;53.250;10.410;2023-05-19T12:24:18;22.60;55.00
13389;DHT22;6764;53.250;10.410;2023-05-19T12:26:44;22.60;55.90
13389;DHT22;6764;53.250;10.410;2023-05-19T12:29:12;22.60;56.20
13389;DHT22;6764;53.250;10.410;2023-05-19T12:31:37;22.40;56.50
13389;DHT22;6764;53.250;10.410;2023-05-19T12:34:04;22.20;57.00
13389;DHT22;6764;53.250;10.410;2023-05-19T12:36:31;22.00;57.00
13389;DHT22;6764;53.250;10.410;2023-05-19T12:38:56;21.70;57.10
13389;DHT22;6764;53.250;10.410;2023-05-19T12:41:24;21.50;58.10
13389;DHT22;6764;53.250;10.410;2023-05-19T12:43:49;21.50;58.80
13389;DHT22;6764;53.250;10.410;2023-05-19T12:46:17;21.80;58.90
13389;DHT22;6764;53.250;10.410;2023-05-19T12:48:44;22.30;58.60
13389;DHT22;6764;53.250;10.410;2023-05-19T12:51:28;22.60;57.90
13389;DHT22;6764;53.250;10.410;2023-05-19T12:53:54;22.60;57.10
13389;DHT22;6764;53.250;10.410;2023-05-19T12:56:19;22.30;56.90
13389;DHT22;6764;53.250;10.410;2023-05-19T12:58:45;22.30;56.70
13389;DHT22;6764;53.250;10.410;2023-05-19T13:01:15;22.10;57.10
13389;DHT22;6764;53.250;10.410;2023-05-19T13:03:41;22.00;57.30
13389;DHT22;6764;53.250;10.410;2023-05-19T13:06:07;21.70;57.60
13389;DHT22;6764;53.250;10.410;2023-05-19T13:08:34;21.30;58.70
13389;DHT22;6764;53.250;10.410;2023-05-19T13:11:00;21.30;59.40
13389;DHT22;6764;53.250;10.410;2023-05-19T13:13:26;21.30;59.30
13389;DHT22;6764;53.250;10.410;2023-05-19T13:15:51;21.40;59.60
13389;DHT22;6764;53.250;10.410;2023-05-19T13:18:18;21.30;59.80
13389;DHT22;6764;53.250;10.410;2023-05-19T13:20:44;21.20;60.00
13389;DHT22;6764;53.250;10.410;2023-05-19T13:23:12;21.20;60.00
13389;DHT22;6764;53.250;10.410;2023-05-19T13:25:38;21.20;59.90
13389;DHT22;6764;53.250;10.410;2023-05-19T13:28:04;21.20;60.00
13389;DHT22;6764;53.250;10.410;2023-05-19T13:30:37;21.20;60.10
13389;DHT22;6764;53.250;10.410;2023-05-19T13:33:03;21.20;60.20
13389;DHT22;6764;53.250;10.410;2023-05-19T13:35:29;21.20;60.40
13389;DHT22;6764;53.250;10.410;2023-05-19T13:38:02;21.10;60.70
13389;DHT22;6764;53.250;10.410;2023-05-19T13:40:28;21.00;60.90
13389;DHT22;6764;53.250;10.410;2023-05-19T13:42:57;21.00;60.40
13389;DHT22;6764;53.250;10.410;2023-05-19T13:45:22;21.00;60.20
13389;DHT22;6764;53.250;10.410;2023-05-19T13:47:48;21.30;60.20
13389;DHT22;6764;53.250;10.410;2023-05-19T13:50:13;21.30;59.70
13389;DHT22;6764;53.250;10.410;2023-05-19T13:52:39;21.40;59.90
13389;DHT22;6764;53.250;10.410;2023-05-19T13:55:05;21.50;60.40
13389;DHT22;6764;53.250;10.410;2023-05-19T13:57:31;21.50;60.90
13389;DHT22;6764;53.250;10.410;2023-05-19T13:59:58;21.60;61.10
13389;DHT22;6764;53.250;10.410;2023-05-19T14:02:24;21.40;63.20
13389;DHT22;6764;53.250;10.410;2023-05-19T14:04:50;21.30;64.10
13389;DHT22;6764;53.250;10.410;2023-05-19T14:07:16;21.10;65.10
13389;DHT22;6764;53.250;10.410;2023-05-19T14:09:41;20.90;64.30
13389;DHT22;6764;53.250;10.410;2023-05-19T14:12:07;20.90;65.00
13389;DHT22;6764;53.250;10.410;2023-05-19T14:14:36;20.90;64.70
13389;DHT22;6764;53.250;10.410;2023-05-19T14:17:15;20.90;63.80
13389;DHT22;6764;53.250;10.410;2023-05-19T14:19:40;21.10;65.30
13389;DHT22;6764;53.250;10.410;2023-05-19T14:22:06;21.10;67.00
13389;DHT22;6764;53.250;10.410;2023-05-19T14:24:32;21.20;66.60
13389;DHT22;6764;53.250;10.410;2023-05-19T14:26:57;21.30;66.80
13389;DHT22;6764;53.250;10.410;2023-05-19T14:29:23;21.50;66.10
13389;DHT22;6764;53.250;10.410;2023-05-19T14:31:48;21.60;64.40
13389;DHT22;6764;53.250;10.410;2023-05-19T14:34:14;21.60;65.20
13389;DHT22;6764;53.250;10.410;2023-05-19T14:36:43;21.60;65.80
13389;DHT22;6764;53.250;10.410;2023-05-19T14:39:08;21.50;66.90
13389;DHT22;6764;53.250;10.410;2023-05-19T14:41:34;21.40;66.30
13389;DHT22;6764;53.250;10.410;2023-05-19T14:44:00;21.30;68.10
13389;DHT22;6764;53.250;10.410;2023-05-19T14:46:25;21.10;68.90
13389;DHT22;6764;53.250;10.410;2023-05-19T14:48:51;20.80;69.60
13389;DHT22;6764;53.250;10.410;2023-05-19T14:51:16;20.60;69.90
13389;DHT22;6764;53.250;10.410;2023-05-19T14:53:42;20.70;70.80
13389;DHT22;6764;53.250;10.410;2023-05-19T14:56:08;20.80;71.20
13389;DHT22;6764;53.250;10.410;2023-05-19T14:58:33;20.90;70.60
13389;DHT22;6764;53.250;10.410;2023-05-19T15:00:59;20.90;70.30
13389;DHT22;6764;53.250;10.410;2023-05-19T15:03:24;20.80;70.70
13389;DHT22;6764;53.250;10.410;2023-05-19T15:05:50;20.80;71.60
13389;DHT22;6764;53.250;10.410;2023-05-19T15:08:16;20.70;71.90
13389;DHT22;6764;53.250;10.410;2023-05-19T15:10:41;20.50;72.30
13389;DHT22;6764;53.250;10.410;2023-05-19T15:13:07;20.30;73.20
13389;DHT22;6764;53.250;10.410;2023-05-19T15:15:32;20.30;74.00
13389;DHT22;6764;53.250;10.410;2023-05-19T15:17:58;20.20;74.30
13389;DHT22;6764;53.250;10.410;2023-05-19T15:20:24;20.20;74.60
13389;DHT22;6764;53.250;10.410;2023-05-19T15:22:50;20.20;74.90
13389;DHT22;6764;53.250;10.410;2023-05-19T15:25:15;20.30;74.70
13389;DHT22;6764;53.250;10.410;2023-05-19T15:27:41;20.40;74.30
13389;DHT22;6764;53.250;10.410;2023-05-19T15:30:07;20.50;74.20
13389;DHT22;6764;53.250;10.410;2023-05-19T15:32:32;20.70;73.40
13389;DHT22;6764;53.250;10.410;2023-05-19T15:34:58;20.80;73.10
13389;DHT22;6764;53.250;10.410;2023-05-19T15:37:24;20.80;73.30
13389;DHT22;6764;53.250;10.410;2023-05-19T15:39:49;20.80;73.30
13389;DHT22;6764;53.250;10.410;2023-05-19T15:42:16;20.60;72.90
13389;DHT22;6764;53.250;10.410;2023-05-19T15:44:41;20.60;72.30
13389;DHT22;6764;53.250;10.410;2023-05-19T15:47:10;20.50;70.40
13389;DHT22;6764;53.250;10.410;2023-05-19T15:49:35;20.60;70.20
13389;DHT22;6764;53.250;10.410;2023-05-19T15:52:02;20.60;69.30
13389;DHT22;6764;53.250;10.410;2023-05-19T15:54:27;20.60;69.60
13389;DHT22;6764;53.250;10.410;2023-05-19T15:56:53;20.60;70.70
13389;DHT22;6764;53.250;10.410;2023-05-19T15:59:19;20.50;71.70